sensor_id;sensor_type;location;lat;lon;timestamp;pressure;altitude;pressure_sealevel;temperature;humidity
79415;BME280;68864;44.972;19.612;2023-07-13T00:00:08;100432.03;;;27.38;58.60
79415;BME280;68864;44.972;19.612;2023-07-13T00:02:35;100424.16;;;27.47;57.75
79415;BME280;68864;44.972;19.612;2023-07-13T00:05:03;100434.81;;;27.47;58.54
79415;BME280;68864;44.972;19.612;2023-07-13T00:07:31;100420.69;;;27.43;57.99
79415;BME280;68864;44.972;19.612;2023-07-13T00:09:58;100433.59;;;27.39;58.29
79415;BME280;68864;44.972;19.612;2023-07-13T00:12:30;100438.88;;;27.31;57.94
79415;BME280;68864;44.972;19.612;2023-07-13T00:14:57;100432.38;;;27.21;58.63
79415;BME280;68864;44.972;19.612;2023-07-13T00:17:26;100437.16;;;27.15;59.07
79415;BME280;68864;44.972;19.612;2023-07-13T00:19:53;100426.25;;;27.05;59.19
79415;BME280;68864;44.972;19.612;2023-07-13T00:22:21;100421.81;;;26.95;60.01
79415;BME280;68864;44.972;19.612;2023-07-13T00:24:50;100420.69;;;26.83;59.89
79415;BME280;68864;44.972;19.612;2023-07-13T00:27:17;100425.31;;;26.71;60.29
79415;BME280;68864;44.972;19.612;2023-07-13T00:29:44;100419.59;;;26.62;60.93
79415;BME280;68864;44.972;19.612;2023-07-13T00:32:11;100429.28;;;26.56;60.58
79415;BME280;68864;44.972;19.612;2023-07-13T00:34:37;100430.56;;;26.27;62.24
79415;BME280;68864;44.972;19.612;2023-07-13T00:37:05;100428.03;;;26.38;60.85
79415;BME280;68864;44.972;19.612;2023-07-13T00:39:33;100430.72;;;26.42;61.08
79415;BME280;68864;44.972;19.612;2023-07-13T00:42:02;100423.41;;;26.41;60.50
79415;BME280;68864;44.972;19.612;2023-07-13T00:44:29;100414.22;;;26.28;61.03
79415;BME280;68864;44.972;19.612;2023-07-13T00:46:56;100419.47;;;26.29;60.95
79415;BME280;68864;44.972;19.612;2023-07-13T00:49:26;100425.34;;;26.26;60.62
79415;BME280;68864;44.972;19.612;2023-07-13T00:51:55;100425.13;;;26.20;60.82
79415;BME280;68864;44.972;19.612;2023-07-13T00:54:26;100419.72;;;26.13;61.22
79415;BME280;68864;44.972;19.612;2023-07-13T00:56:55;100416.88;;;26.04;60.93
79415;BME280;68864;44.972;19.612;2023-07-13T00:59:25;100414.66;;;25.99;61.12
79415;BME280;68864;44.972;19.612;2023-07-13T01:01:53;100417.97;;;25.97;60.41
79415;BME280;68864;44.972;19.612;2023-07-13T01:04:20;100403.03;;;25.93;60.82
79415;BME280;68864;44.972;19.612;2023-07-13T01:06:47;100412.59;;;25.99;59.87
79415;BME280;68864;44.972;19.612;2023-07-13T01:09:14;100416.34;;;25.87;60.27
79415;BME280;68864;44.972;19.612;2023-07-13T01:11:41;100411.28;;;26.00;59.80
79415;BME280;68864;44.972;19.612;2023-07-13T01:14:10;100400.66;;;26.01;59.87
79415;BME280;68864;44.972;19.612;2023-07-13T01:16:41;100398.97;;;26.13;60.32
79415;BME280;68864;44.972;19.612;2023-07-13T01:19:15;100406.88;;;26.18;60.13
79415;BME280;68864;44.972;19.612;2023-07-13T01:21:52;100398.63;;;26.10;59.53
79415;BME280;68864;44.972;19.612;2023-07-13T01:24:19;100395.75;;;26.20;59.78
79415;BME280;68864;44.972;19.612;2023-07-13T01:26:45;100401.81;;;26.13;60.43
79415;BME280;68864;44.972;19.612;2023-07-13T01:29:12;100403.38;;;26.23;60.02
79415;BME280;68864;44.972;19.612;2023-07-13T01:31:38;100400.69;;;26.10;60.06
79415;BME280;68864;44.972;19.612;2023-07-13T01:34:05;100394.34;;;26.15;60.17
79415;BME280;68864;44.972;19.612;2023-07-13T01:36:31;100388.63;;;25.97;61.36
79415;BME280;68864;44.972;19.612;2023-07-13T01:39:00;100402.13;;;26.05;60.24
79415;BME280;68864;44.972;19.612;2023-07-13T01:41:26;100394.03;;;26.04;59.95
79415;BME280;68864;44.972;19.612;2023-07-13T01:43:53;100387.31;;;25.89;60.86
79415;BME280;68864;44.972;19.612;2023-07-13T01:46:19;100384.03;;;25.99;59.91
79415;BME280;68864;44.972;19.612;2023-07-13T01:48:46;100384.63;;;25.85;59.42
79415;BME280;68864;44.972;19.612;2023-07-13T01:51:13;100381.16;;;25.99;59.43
79415;BME280;68864;44.972;19.612;2023-07-13T01:53:39;100382.59;;;26.04;59.20
79415;BME280;68864;44.972;19.612;2023-07-13T01:56:07;100384.13;;;25.87;59.87
79415;BME280;68864;44.972;19.612;2023-07-13T01:58:34;100374.31;;;25.88;58.77
79415;BME280;68864;44.972;19.612;2023-07-13T02:01:00;100387.78;;;25.87;59.64
79415;BME280;68864;44.972;19.612;2023-07-13T02:03:27;100395.91;;;25.98;58.60
79415;BME280;68864;44.972;19.612;2023-07-13T02:05:53;100388.44;;;25.82;58.57
79415;BME280;68864;44.972;19.612;2023-07-13T02:08:20;100375.44;;;25.90;58.41
79415;BME280;68864;44.972;19.612;2023-07-13T02:10:46;100370.50;;;25.73;59.43
79415;BME280;68864;44.972;19.612;2023-07-13T02:13:15;100372.09;;;25.83;59.20
79415;BME280;68864;44.972;19.612;2023-07-13T02:15:41;100374.94;;;25.83;58.77
79415;BME280;68864;44.972;19.612;2023-07-13T02:18:08;100383.31;;;25.68;59.86
79415;BME280;68864;44.972;19.612;2023-07-13T02:20:35;100384.94;;;25.78;59.60
79415;BME280;68864;44.972;19.612;2023-07-13T02:23:01;100380.97;;;25.76;58.92
79415;BME280;68864;44.972;19.612;2023-07-13T02:25:28;100366.50;;;25.70;59.60
79415;BME280;68864;44.972;19.612;2023-07-13T02:27:55;100387.44;;;25.67;60.33
79415;BME280;68864;44.972;19.612;2023-07-13T02:30:23;100378.44;;;25.78;59.57
79415;BME280;68864;44.972;19.612;2023-07-13T02:32:50;100357.31;;;25.66;59.89
79415;BME280;68864;44.972;19.612;2023-07-13T02:35:17;100362.38;;;25.62;60.30
79415;BME280;68864;44.972;19.612;2023-07-13T02:37:43;100366.34;;;25.73;59.71
79415;BME280;68864;44.972;19.612;2023-07-13T02:40:10;100370.13;;;25.61;59.49
79415;BME280;68864;44.972;19.612;2023-07-13T02:42:37;100353.59;;;25.56;58.93
79415;BME280;68864;44.972;19.612;2023-07-13T02:45:03;100358.81;;;25.49;59.65
79415;BME280;68864;44.972;19.612;2023-07-13T02:47:33;100370.78;;;25.65;59.53
79415;BME280;68864;44.972;19.612;2023-07-13T02:49:59;100375.38;;;25.63;59.35
79415;BME280;68864;44.972;19.612;2023-07-13T02:52:26;100390.00;;;25.65;59.25
79415;BME280;68864;44.972;19.612;2023-07-13T02:54:52;100384.16;;;25.47;60.62
79415;BME280;68864;44.972;19.612;2023-07-13T02:57:19;100389.13;;;25.55;59.98
79415;BME280;68864;44.972;19.612;2023-07-13T02:59:46;100396.78;;;25.58;59.59
79415;BME280;68864;44.972;19.612;2023-07-13T03:02:12;100390.16;;;25.40;61.08
79415;BME280;68864;44.972;19.612;2023-07-13T03:04:40;100393.06;;;25.49;60.16
79415;BME280;68864;44.972;19.612;2023-07-13T03:07:07;100396.59;;;25.53;60.14
79415;BME280;68864;44.972;19.612;2023-07-13T03:09:34;100398.66;;;25.52;60.59
79415;BME280;68864;44.972;19.612;2023-07-13T03:12:01;100411.16;;;25.55;60.12
79415;BME280;68864;44.972;19.612;2023-07-13T03:14:28;100411.16;;;25.55;60.26
79415;BME280;68864;44.972;19.612;2023-07-13T03:16:55;100386.84;;;25.41;60.87
79415;BME280;68864;44.972;19.612;2023-07-13T03:19:22;100396.50;;;25.34;61.76
79415;BME280;68864;44.972;19.612;2023-07-13T03:21:50;100377.66;;;25.37;60.76
79415;BME280;68864;44.972;19.612;2023-07-13T03:24:16;100400.69;;;25.52;59.98
79415;BME280;68864;44.972;19.612;2023-07-13T03:26:43;100407.78;;;25.38;60.87
79415;BME280;68864;44.972;19.612;2023-07-13T03:29:10;100406.41;;;25.52;59.78
79415;BME280;68864;44.972;19.612;2023-07-13T03:31:36;100419.84;;;25.42;61.07
79415;BME280;68864;44.972;19.612;2023-07-13T03:34:03;100386.84;;;25.41;60.20
79415;BME280;68864;44.972;19.612;2023-07-13T03:36:31;100395.78;;;25.52;61.01
79415;BME280;68864;44.972;19.612;2023-07-13T03:39:02;100396.28;;;25.60;60.73
79415;BME280;68864;44.972;19.612;2023-07-13T03:41:29;100393.44;;;25.60;60.77
79415;BME280;68864;44.972;19.612;2023-07-13T03:43:57;100403.00;;;25.66;60.26
79415;BME280;68864;44.972;19.612;2023-07-13T03:46:23;100389.75;;;25.50;60.16
79415;BME280;68864;44.972;19.612;2023-07-13T03:48:50;100418.41;;;25.47;60.37
79415;BME280;68864;44.972;19.612;2023-07-13T03:51:17;100417.88;;;25.61;60.05
79415;BME280;68864;44.972;19.612;2023-07-13T03:53:45;100423.94;;;25.72;59.82
79415;BME280;68864;44.972;19.612;2023-07-13T03:56:14;100420.78;;;25.79;60.20
79415;BME280;68864;44.972;19.612;2023-07-13T03:58:42;100399.06;;;25.82;59.69
79415;BME280;68864;44.972;19.612;2023-07-13T04:01:10;100395.25;;;25.85;59.13
79415;BME280;68864;44.972;19.612;2023-07-13T04:03:38;100385.91;;;25.84;59.70
79415;BME280;68864;44.972;19.612;2023-07-13T04:06:06;100373.50;;;25.87;59.54
79415;BME280;68864;44.972;19.612;2023-07-13T04:08:35;100381.47;;;25.92;59.43
79415;BME280;68864;44.972;19.612;2023-07-13T04:11:03;100379.56;;;25.98;58.88
79415;BME280;68864;44.972;19.612;2023-07-13T04:13:32;100386.72;;;26.03;59.32
79415;BME280;68864;44.972;19.612;2023-07-13T04:15:58;100391.16;;;26.13;58.62
79415;BME280;68864;44.972;19.612;2023-07-13T04:18:25;100384.78;;;26.00;59.11
79415;BME280;68864;44.972;19.612;2023-07-13T04:20:52;100388.63;;;26.15;58.68
79415;BME280;68864;44.972;19.612;2023-07-13T04:23:18;100388.94;;;26.17;59.01
79415;BME280;68864;44.972;19.612;2023-07-13T04:25:45;100389.44;;;26.34;58.85
79415;BME280;68864;44.972;19.612;2023-07-13T04:28:14;100394.22;;;26.46;58.14
79415;BME280;68864;44.972;19.612;2023-07-13T04:30:42;100390.41;;;26.49;58.53
79415;BME280;68864;44.972;19.612;2023-07-13T04:33:09;100401.97;;;26.64;58.37
79415;BME280;68864;44.972;19.612;2023-07-13T04:35:36;100399.13;;;26.55;58.84
79415;BME280;68864;44.972;19.612;2023-07-13T04:38:03;100393.22;;;26.67;57.76
79415;BME280;68864;44.972;19.612;2023-07-13T04:40:31;100413.38;;;26.82;57.58
79415;BME280;68864;44.972;19.612;2023-07-13T04:42:57;100433.44;;;26.91;57.98
79415;BME280;68864;44.972;19.612;2023-07-13T04:45:24;100436.59;;;26.84;58.76
79415;BME280;68864;44.972;19.612;2023-07-13T04:47:53;100431.84;;;26.90;58.24
79415;BME280;68864;44.972;19.612;2023-07-13T04:50:20;100450.72;;;27.06;58.23
79415;BME280;68864;44.972;19.612;2023-07-13T04:52:49;100471.50;;;27.24;57.76
79415;BME280;68864;44.972;19.612;2023-07-13T04:55:16;100475.13;;;27.34;57.36
79415;BME280;68864;44.972;19.612;2023-07-13T04:57:42;100462.38;;;27.35;57.11
79415;BME280;68864;44.972;19.612;2023-07-13T05:00:09;100484.16;;;27.42;57.32
79415;BME280;68864;44.972;19.612;2023-07-13T05:02:38;100483.03;;;27.57;57.12
79415;BME280;68864;44.972;19.612;2023-07-13T05:05:07;100474.38;;;27.66;56.84
79415;BME280;68864;44.972;19.612;2023-07-13T05:07:34;100479.28;;;27.75;57.28
79415;BME280;68864;44.972;19.612;2023-07-13T05:10:00;100485.69;;;27.70;57.98
79415;BME280;68864;44.972;19.612;2023-07-13T05:12:27;100501.38;;;27.84;57.43
79415;BME280;68864;44.972;19.612;2023-07-13T05:14:53;100490.72;;;27.84;58.06
79415;BME280;68864;44.972;19.612;2023-07-13T05:17:20;100497.28;;;27.99;57.39
79415;BME280;68864;44.972;19.612;2023-07-13T05:19:46;100490.00;;;27.98;58.08
79415;BME280;68864;44.972;19.612;2023-07-13T05:22:15;100491.34;;;28.12;57.37
79415;BME280;68864;44.972;19.612;2023-07-13T05:24:41;100472.84;;;28.13;56.99
79415;BME280;68864;44.972;19.612;2023-07-13T05:27:08;100482.66;;;28.30;56.95
79415;BME280;68864;44.972;19.612;2023-07-13T05:29:35;100496.75;;;28.43;56.28
79415;BME280;68864;44.972;19.612;2023-07-13T05:32:01;100488.41;;;28.30;56.60
79415;BME280;68864;44.972;19.612;2023-07-13T05:34:28;100482.28;;;28.37;56.38
79415;BME280;68864;44.972;19.612;2023-07-13T05:36:55;100473.38;;;28.35;56.58
79415;BME280;68864;44.972;19.612;2023-07-13T05:39:23;100456.81;;;28.54;55.63
79415;BME280;68864;44.972;19.612;2023-07-13T05:41:50;100446.44;;;28.57;55.12
79415;BME280;68864;44.972;19.612;2023-07-13T05:44:16;100435.56;;;28.61;53.90
79415;BME280;68864;44.972;19.612;2023-07-13T05:46:44;100434.03;;;28.74;54.19
79415;BME280;68864;44.972;19.612;2023-07-13T05:49:10;100449.22;;;28.66;53.34
79415;BME280;68864;44.972;19.612;2023-07-13T05:51:37;100451.66;;;28.82;53.55
79415;BME280;68864;44.972;19.612;2023-07-13T05:54:04;100470.28;;;29.01;52.88
79415;BME280;68864;44.972;19.612;2023-07-13T05:56:32;100494.63;;;29.20;52.63
79415;BME280;68864;44.972;19.612;2023-07-13T05:58:58;100508.53;;;29.37;52.38
79415;BME280;68864;44.972;19.612;2023-07-13T06:01:25;100513.75;;;29.53;51.91
79415;BME280;68864;44.972;19.612;2023-07-13T06:03:52;100505.13;;;29.68;51.68
79415;BME280;68864;44.972;19.612;2023-07-13T06:06:19;100501.94;;;29.80;50.61
79415;BME280;68864;44.972;19.612;2023-07-13T06:08:45;100522.38;;;29.97;50.04
79415;BME280;68864;44.972;19.612;2023-07-13T06:11:13;100534.25;;;30.05;48.50
79415;BME280;68864;44.972;19.612;2023-07-13T06:13:41;100535.56;;;30.24;48.88
79415;BME280;68864;44.972;19.612;2023-07-13T06:16:08;100526.59;;;30.36;49.20
79415;BME280;68864;44.972;19.612;2023-07-13T06:18:36;100519.50;;;30.52;49.81
79415;BME280;68864;44.972;19.612;2023-07-13T06:21:06;100512.63;;;30.64;50.44
79415;BME280;68864;44.972;19.612;2023-07-13T06:23:33;100521.44;;;30.81;47.77
79415;BME280;68864;44.972;19.612;2023-07-13T06:26:00;100521.78;;;30.89;48.98
79415;BME280;68864;44.972;19.612;2023-07-13T06:28:28;100533.59;;;31.11;48.75
79415;BME280;68864;44.972;19.612;2023-07-13T06:30:56;100540.25;;;31.23;50.59
79415;BME280;68864;44.972;19.612;2023-07-13T06:33:23;100531.75;;;31.39;50.06
79415;BME280;68864;44.972;19.612;2023-07-13T06:35:49;100547.41;;;31.58;49.32
79415;BME280;68864;44.972;19.612;2023-07-13T06:38:16;100527.44;;;31.81;48.55
79415;BME280;68864;44.972;19.612;2023-07-13T06:40:43;100521.50;;;31.90;47.20
79415;BME280;68864;44.972;19.612;2023-07-13T06:43:09;100524.69;;;31.98;46.48
79415;BME280;68864;44.972;19.612;2023-07-13T06:45:41;100528.53;;;32.20;46.48
79415;BME280;68864;44.972;19.612;2023-07-13T06:48:09;100523.69;;;32.43;46.23
79415;BME280;68864;44.972;19.612;2023-07-13T06:50:36;100504.84;;;32.59;44.89
79415;BME280;68864;44.972;19.612;2023-07-13T06:53:02;100518.94;;;32.94;44.26
79415;BME280;68864;44.972;19.612;2023-07-13T06:55:29;100527.41;;;33.20;43.37
79415;BME280;68864;44.972;19.612;2023-07-13T06:57:56;100511.16;;;33.39;43.06
79415;BME280;68864;44.972;19.612;2023-07-13T07:00:23;100506.44;;;33.58;42.25
79415;BME280;68864;44.972;19.612;2023-07-13T07:02:50;100514.09;;;33.83;42.46
79415;BME280;68864;44.972;19.612;2023-07-13T07:05:18;100522.47;;;34.09;41.48
79415;BME280;68864;44.972;19.612;2023-07-13T07:07:47;100507.44;;;34.27;41.48
79415;BME280;68864;44.972;19.612;2023-07-13T07:10:14;100493.69;;;34.56;40.69
79415;BME280;68864;44.972;19.612;2023-07-13T07:12:40;100478.31;;;34.83;39.87
79415;BME280;68864;44.972;19.612;2023-07-13T07:15:07;100492.81;;;38.14;32.82
79415;BME280;68864;44.972;19.612;2023-07-13T07:17:34;100469.88;;;42.06;26.33
79415;BME280;68864;44.972;19.612;2023-07-13T07:20:02;100493.22;;;44.39;23.00
79415;BME280;68864;44.972;19.612;2023-07-13T07:22:30;100484.06;;;45.40;21.39
79415;BME280;68864;44.972;19.612;2023-07-13T07:24:57;100464.66;;;47.56;18.88
79415;BME280;68864;44.972;19.612;2023-07-13T07:27:24;100468.06;;;48.78;17.51
79415;BME280;68864;44.972;19.612;2023-07-13T07:29:51;100460.75;;;49.94;16.59
79415;BME280;68864;44.972;19.612;2023-07-13T07:32:19;100464.59;;;50.94;15.47
79415;BME280;68864;44.972;19.612;2023-07-13T07:34:46;100474.72;;;51.28;15.46
79415;BME280;68864;44.972;19.612;2023-07-13T07:37:13;100469.97;;;51.61;14.42
79415;BME280;68864;44.972;19.612;2023-07-13T07:39:42;100471.63;;;52.06;13.77
79415;BME280;68864;44.972;19.612;2023-07-13T07:42:09;100459.56;;;52.74;14.18
79415;BME280;68864;44.972;19.612;2023-07-13T07:44:38;100449.44;;;53.24;13.02
79415;BME280;68864;44.972;19.612;2023-07-13T07:47:05;100452.25;;;53.51;12.59
79415;BME280;68864;44.972;19.612;2023-07-13T07:49:32;100454.97;;;53.94;12.01
79415;BME280;68864;44.972;19.612;2023-07-13T07:51:59;100459.88;;;54.04;12.22
79415;BME280;68864;44.972;19.612;2023-07-13T07:54:25;100468.63;;;54.00;11.57
79415;BME280;68864;44.972;19.612;2023-07-13T07:56:54;100455.03;;;52.44;12.65
79415;BME280;68864;44.972;19.612;2023-07-13T07:59:20;100461.28;;;49.67;15.62
79415;BME280;68864;44.972;19.612;2023-07-13T08:01:47;100457.19;;;47.55;18.22
79415;BME280;68864;44.972;19.612;2023-07-13T08:04:15;100452.69;;;45.62;20.59
79415;BME280;68864;44.972;19.612;2023-07-13T08:06:42;100449.84;;;44.22;21.88
79415;BME280;68864;44.972;19.612;2023-07-13T08:09:09;100449.31;;;42.84;23.28
79415;BME280;68864;44.972;19.612;2023-07-13T08:11:35;100442.34;;;41.94;24.53
79415;BME280;68864;44.972;19.612;2023-07-13T08:14:04;100430.97;;;41.30;25.21
79415;BME280;68864;44.972;19.612;2023-07-13T08:16:30;100428.75;;;40.92;25.38
79415;BME280;68864;44.972;19.612;2023-07-13T08:18:58;100423.66;;;40.41;25.75
79415;BME280;68864;44.972;19.612;2023-07-13T08:21:25;100418.84;;;39.87;25.81
79415;BME280;68864;44.972;19.612;2023-07-13T08:23:51;100412.22;;;39.66;26.72
79415;BME280;68864;44.972;19.612;2023-07-13T08:26:18;100410.34;;;39.48;27.02
79415;BME280;68864;44.972;19.612;2023-07-13T08:28:45;100414.28;;;39.16;27.35
79415;BME280;68864;44.972;19.612;2023-07-13T08:31:13;100428.88;;;39.16;28.14
79415;BME280;68864;44.972;19.612;2023-07-13T08:33:40;100415.28;;;38.85;28.91
79415;BME280;68864;44.972;19.612;2023-07-13T08:36:07;100418.84;;;38.91;28.11
79415;BME280;68864;44.972;19.612;2023-07-13T08:38:34;100432.44;;;38.88;28.86
79415;BME280;68864;44.972;19.612;2023-07-13T08:41:09;100440.22;;;38.73;28.27
79415;BME280;68864;44.972;19.612;2023-07-13T08:43:37;100452.16;;;38.35;28.45
79415;BME280;68864;44.972;19.612;2023-07-13T08:46:09;100441.19;;;38.28;28.39
79415;BME280;68864;44.972;19.612;2023-07-13T08:48:42;100443.19;;;38.33;29.23
79415;BME280;68864;44.972;19.612;2023-07-13T08:51:12;100440.28;;;38.20;30.37
79415;BME280;68864;44.972;19.612;2023-07-13T08:53:47;100424.81;;;38.25;29.98
79415;BME280;68864;44.972;19.612;2023-07-13T08:56:25;100434.78;;;38.30;31.52
79415;BME280;68864;44.972;19.612;2023-07-13T08:58:56;100427.41;;;38.29;30.27
79415;BME280;68864;44.972;19.612;2023-07-13T09:01:29;100430.19;;;38.34;30.73
79415;BME280;68864;44.972;19.612;2023-07-13T09:04:05;100428.19;;;38.29;30.88
79415;BME280;68864;44.972;19.612;2023-07-13T09:06:40;100426.38;;;38.26;29.76
79415;BME280;68864;44.972;19.612;2023-07-13T09:09:17;100435.56;;;38.30;29.63
79415;BME280;68864;44.972;19.612;2023-07-13T09:11:50;100434.34;;;38.26;29.75
79415;BME280;68864;44.972;19.612;2023-07-13T09:14:33;100397.03;;;37.98;30.31
79415;BME280;68864;44.972;19.612;2023-07-13T09:17:03;100418.88;;;38.17;30.71
79415;BME280;68864;44.972;19.612;2023-07-13T09:19:33;100424.47;;;37.89;31.10
79415;BME280;68864;44.972;19.612;2023-07-13T09:22:02;100423.22;;;37.98;32.25
79415;BME280;68864;44.972;19.612;2023-07-13T09:24:37;100428.88;;;38.09;31.48
79415;BME280;68864;44.972;19.612;2023-07-13T09:27:14;100408.94;;;38.13;30.98
79415;BME280;68864;44.972;19.612;2023-07-13T09:29:46;100416.53;;;38.29;30.46
79415;BME280;68864;44.972;19.612;2023-07-13T09:32:17;100407.56;;;38.27;31.83
79415;BME280;68864;44.972;19.612;2023-07-13T09:34:51;100402.63;;;38.35;31.06
79415;BME280;68864;44.972;19.612;2023-07-13T09:37:21;100401.28;;;38.36;30.35
79415;BME280;68864;44.972;19.612;2023-07-13T09:39:51;100387.41;;;38.29;29.81
79415;BME280;68864;44.972;19.612;2023-07-13T09:42:20;100408.66;;;38.37;31.00
79415;BME280;68864;44.972;19.612;2023-07-13T09:44:53;100403.97;;;38.34;30.95
79415;BME280;68864;44.972;19.612;2023-07-13T09:47:21;100393.44;;;38.31;29.89
79415;BME280;68864;44.972;19.612;2023-07-13T09:49:54;100389.44;;;38.21;30.45
79415;BME280;68864;44.972;19.612;2023-07-13T09:52:22;100409.28;;;38.23;30.41
79415;BME280;68864;44.972;19.612;2023-07-13T09:54:50;100387.53;;;38.10;30.40
79415;BME280;68864;44.972;19.612;2023-07-13T09:57:23;100402.19;;;38.18;30.70
79415;BME280;68864;44.972;19.612;2023-07-13T09:59:52;100402.75;;;38.16;30.59
79415;BME280;68864;44.972;19.612;2023-07-13T10:02:27;100399.09;;;38.16;30.30
79415;BME280;68864;44.972;19.612;2023-07-13T10:04:59;100396.84;;;38.09;31.55
79415;BME280;68864;44.972;19.612;2023-07-13T10:07:27;100396.19;;;38.16;32.27
79415;BME280;68864;44.972;19.612;2023-07-13T10:09:54;100389.66;;;38.10;30.38
79415;BME280;68864;44.972;19.612;2023-07-13T10:12:21;100386.09;;;38.04;30.78
79415;BME280;68864;44.972;19.612;2023-07-13T10:14:50;100367.13;;;37.97;30.98
79415;BME280;68864;44.972;19.612;2023-07-13T10:17:19;100375.22;;;38.04;31.49
79415;BME280;68864;44.972;19.612;2023-07-13T10:19:52;100392.81;;;38.12;31.46
79415;BME280;68864;44.972;19.612;2023-07-13T10:22:25;100377.47;;;38.11;31.08
79415;BME280;68864;44.972;19.612;2023-07-13T10:24:54;100370.94;;;37.92;30.96
79415;BME280;68864;44.972;19.612;2023-07-13T10:27:29;100381.91;;;37.99;31.21
79415;BME280;68864;44.972;19.612;2023-07-13T10:30:02;100362.56;;;37.62;31.58
79415;BME280;68864;44.972;19.612;2023-07-13T10:32:31;100380.34;;;37.59;31.84
79415;BME280;68864;44.972;19.612;2023-07-13T10:34:58;100374.53;;;37.72;32.52
79415;BME280;68864;44.972;19.612;2023-07-13T10:37:31;100379.69;;;37.79;32.31
79415;BME280;68864;44.972;19.612;2023-07-13T10:40:04;100376.44;;;37.69;32.85
79415;BME280;68864;44.972;19.612;2023-07-13T10:42:35;100375.31;;;37.59;32.33
79415;BME280;68864;44.972;19.612;2023-07-13T10:45:13;100365.91;;;37.66;32.12
79415;BME280;68864;44.972;19.612;2023-07-13T10:47:41;100385.53;;;38.05;32.45
79415;BME280;68864;44.972;19.612;2023-07-13T10:50:15;100380.84;;;38.15;31.64
79415;BME280;68864;44.972;19.612;2023-07-13T10:52:46;100375.44;;;38.06;31.53
79415;BME280;68864;44.972;19.612;2023-07-13T10:55:33;100373.41;;;38.01;30.88
79415;BME280;68864;44.972;19.612;2023-07-13T10:58:02;100372.16;;;37.97;31.39
79415;BME280;68864;44.972;19.612;2023-07-13T11:00:31;100369.50;;;37.72;32.71
79415;BME280;68864;44.972;19.612;2023-07-13T11:03:00;100378.88;;;37.65;31.91
79415;BME280;68864;44.972;19.612;2023-07-13T11:05:30;100373.03;;;37.52;31.97
79415;BME280;68864;44.972;19.612;2023-07-13T11:08:13;100366.28;;;37.31;31.49
79415;BME280;68864;44.972;19.612;2023-07-13T11:10:50;100370.28;;;37.15;31.89
79415;BME280;68864;44.972;19.612;2023-07-13T11:13:39;100363.16;;;37.10;32.64
79415;BME280;68864;44.972;19.612;2023-07-13T11:16:43;100364.28;;;37.07;32.67
79415;BME280;68864;44.972;19.612;2023-07-13T11:19:39;100366.41;;;37.07;32.40
79415;BME280;68864;44.972;19.612;2023-07-13T11:22:24;100358.78;;;37.03;31.11
79415;BME280;68864;44.972;19.612;2023-07-13T11:24:58;100339.78;;;36.89;32.17
79415;BME280;68864;44.972;19.612;2023-07-13T11:27:38;100358.19;;;36.92;32.08
79415;BME280;68864;44.972;19.612;2023-07-13T11:30:34;100363.31;;;36.86;32.62
79415;BME280;68864;44.972;19.612;2023-07-13T11:33:04;100354.38;;;36.84;31.87
79415;BME280;68864;44.972;19.612;2023-07-13T11:35:35;100353.91;;;36.80;32.09
79415;BME280;68864;44.972;19.612;2023-07-13T11:38:12;100328.25;;;36.65;33.82
79415;BME280;68864;44.972;19.612;2023-07-13T11:40:43;100348.75;;;36.73;34.25
79415;BME280;68864;44.972;19.612;2023-07-13T11:43:12;100340.34;;;36.69;33.05
79415;BME280;68864;44.972;19.612;2023-07-13T11:45:40;100317.34;;;36.52;33.85
79415;BME280;68864;44.972;19.612;2023-07-13T11:48:18;100312.41;;;36.47;33.39
79415;BME280;68864;44.972;19.612;2023-07-13T11:50:57;100324.19;;;36.55;33.51
79415;BME280;68864;44.972;19.612;2023-07-13T11:53:28;100329.75;;;36.53;33.27
79415;BME280;68864;44.972;19.612;2023-07-13T11:55:57;100325.44;;;36.41;33.11
79415;BME280;68864;44.972;19.612;2023-07-13T11:58:26;100315.50;;;36.36;33.76
79415;BME280;68864;44.972;19.612;2023-07-13T12:00:55;100317.81;;;36.38;34.56
79415;BME280;68864;44.972;19.612;2023-07-13T12:03:25;100309.75;;;36.31;34.11
79415;BME280;68864;44.972;19.612;2023-07-13T12:05:56;100309.75;;;36.31;34.02
79415;BME280;68864;44.972;19.612;2023-07-13T12:08:23;100312.19;;;36.27;34.10
79415;BME280;68864;44.972;19.612;2023-07-13T12:10:59;100312.81;;;36.19;33.63
79415;BME280;68864;44.972;19.612;2023-07-13T12:13:27;100313.06;;;36.21;33.71
79415;BME280;68864;44.972;19.612;2023-07-13T12:15:56;100313.06;;;36.21;32.61
79415;BME280;68864;44.972;19.612;2023-07-13T12:18:28;100305.47;;;36.13;33.62
79415;BME280;68864;44.972;19.612;2023-07-13T12:20:58;100321.28;;;36.17;33.05
79415;BME280;68864;44.972;19.612;2023-07-13T12:23:28;100319.91;;;36.00;32.84
79415;BME280;68864;44.972;19.612;2023-07-13T12:26:00;100293.63;;;35.92;34.02
79415;BME280;68864;44.972;19.612;2023-07-13T12:28:32;100316.31;;;36.12;33.38
79415;BME280;68864;44.972;19.612;2023-07-13T12:31:01;100310.94;;;36.22;33.74
79415;BME280;68864;44.972;19.612;2023-07-13T12:33:29;100313.41;;;36.12;34.07
79415;BME280;68864;44.972;19.612;2023-07-13T12:36:00;100339.22;;;36.16;33.98
79415;BME280;68864;44.972;19.612;2023-07-13T12:38:28;100346.31;;;36.20;34.83
79415;BME280;68864;44.972;19.612;2023-07-13T12:40:58;100356.59;;;36.21;34.04
79415;BME280;68864;44.972;19.612;2023-07-13T12:43:25;100343.41;;;36.20;33.76
79415;BME280;68864;44.972;19.612;2023-07-13T12:45:58;100328.91;;;36.20;33.00
79415;BME280;68864;44.972;19.612;2023-07-13T12:48:26;100332.91;;;36.36;33.74